Have a Safe July 4th! 

Flight Track Log - Related Links

Times and Time Zones

All times are in EDT time to prevent confusion due to time zone crossing. See the SKW5631 flight status page for this flight to view local times or setup timezone preferences in your user account.

Time Position Orientation Groundspeed Altitude Reporting Facility
EDT Latitude Longitude Course Direction KTS MPH feet Rate Location/Type
Fri 10:38:33 PM 37.6347 -122.3653 130° Southeast 174 200 33,000  Level Oakland Center
Fri 10:39:04 PM 37.6667 -122.3667 358° North 190 219 2,200 -19,121 Descending Northern Cal TRACON
Fri 10:40:04 PM 37.7167 -122.3833 345° North 250 288 4,000 1,516 Climbing Northern Cal TRACON
Fri 10:40:35 PM 37.7322 -122.4214 297° West 241 277 4,500 2,129 Climbing Oakland Center
Fri 10:41:37 PM 37.6864 -122.4872 229° Southwest 260 299 7,300 2,829 Climbing Oakland Center
Fri 10:42:38 PM 37.6217 -122.5394 213° Southwest 271 312 10,300 2,213 Climbing Oakland Center
Fri 10:43:00 PM 37.2576 -122.0948 130° Southeast  Level FlightAware Approximate
Fri 10:43:39 PM 37.5381 -122.5172 168° South 330 380 11,800  Level Oakland Center
Fri 10:44:40 PM 37.4647 -122.4353 138° Southeast 354 407 14,400 2,488 Climbing Oakland Center
Fri 10:45:42 PM 37.3742 -122.3344 138° Southeast 361 415 16,900 2,098 Climbing Oakland Center
Fri 10:46:43 PM 37.2942 -122.2456 139° Southeast 380 437 18,700 1,770 Climbing Oakland Center
Fri 10:47:44 PM 37.2114 -122.1517 138° Southeast 398 458 20,500 1,672 Climbing Oakland Center
Fri 10:48:45 PM 37.1261 -122.0569 138° Southeast 409 471 22,100 1,525 Climbing Oakland Center
Fri 10:49:46 PM 37.0378 -121.9583 138° Southeast 422 486 23,600 1,574 Climbing Oakland Center
Fri 10:50:47 PM 36.9481 -121.8583 138° Southeast 428 493 25,300 1,463 Climbing Oakland Center
Fri 10:51:49 PM 36.8564 -121.7603 139° Southeast 431 496 26,600 1,171 Climbing Oakland Center
Fri 10:52:50 PM 36.7661 -121.6633 139° Southeast 442 509 27,700 934 Climbing Oakland Center
Fri 10:53:51 PM 36.6506 -121.5336 138° Southeast 464 534 28,500 1,377 Climbing Oakland Center
Fri 10:54:52 PM 36.5511 -121.4281 140° Southeast 469 540 30,500 1,756 Climbing Oakland Center
Fri 10:55:54 PM 36.4583 -121.3264 139° Southeast 452 520 32,100 1,220 Climbing Oakland Center
Fri 10:56:55 PM 36.3639 -121.2231 139° Southeast 452 520 33,000 443 Climbing Oakland Center
Fri 10:57:56 PM 36.2656 -121.1150 138° Southeast 469 540 33,000  Level Oakland Center
Fri 10:58:57 PM 36.1625 -121.0039 139° Southeast 488 562 33,000  Level Oakland Center
Fri 10:59:59 PM 36.0600 -120.8914 138° Southeast 490 564 33,000  Level Oakland Center
Fri 11:01:00 PM 35.9575 -120.7819 139° Southeast 490 564 33,000  Level Oakland Center
Fri 11:02:01 PM 35.8550 -120.6711 139° Southeast 490 564 33,000  Level Oakland Center
Fri 11:03:02 PM 35.7586 -120.5678 139° Southeast 467 537 33,000  Level Oakland Center
Fri 11:04:03 PM 35.6433 -120.4450 139° Southeast 459 528 33,000 -49 Level Oakland Center
Fri 11:05:05 PM 35.5456 -120.3408 139° Southeast 460 529 32,900 -683 Descending Oakland Center
Fri 11:06:06 PM 35.4561 -120.2467 139° Southeast 459 528 31,600 -1,672 Descending Oakland Center
Fri 11:07:07 PM 35.3442 -120.1278 139° Southeast 471 542 29,500 -1,918 Descending Oakland Center
Fri 11:08:08 PM 35.2494 -120.0233 138° Southeast 457 526 27,700 -1,854 Descending Oakland Center
Fri 11:09:10 PM 35.1700 -119.9139 132° Southeast 434 499 25,700 -1,951 Descending Oakland Center
Fri 11:10:11 PM 35.0922 -119.8064 131° Southeast 426 490 23,700 -1,918 Descending Oakland Center
Fri 11:11:12 PM 35.0156 -119.7003 131° Southeast 422 486 21,800 -1,820 Descending Oakland Center
Fri 11:12:13 PM 34.9417 -119.5997 132° Southeast 403 464 20,000 -1,721 Descending Oakland Center
Fri 11:13:14 PM 34.8711 -119.5031 132° Southeast 388 447 18,300 -1,659 Descending Oakland Center
Fri 11:14:16 PM 34.8028 -119.4100 132° Southeast 375 432 16,600 -1,610 Descending Oakland Center
Fri 11:15:17 PM 34.7364 -119.3203 132° Southeast 362 417 15,000 -1,525 Descending Oakland Center
Fri 11:16:18 PM 34.6692 -119.2286 132° Southeast 362 417 13,500 -1,424 Descending Oakland Center
Fri 11:17:36 PM 34.5753 -119.1050 133° Southeast 361 415 11,700 -1,071 Descending Los Angeles Center
Fri 11:18:38 PM 34.5117 -119.0169 131° Southeast 340 391 11,000 -829 Descending Los Angeles Center
Fri 11:19:39 PM 34.4439 -118.9606 146° Southeast 297 342 10,000 -1,366 Descending Los Angeles Center
Fri 11:20:41 PM 34.3819 -118.8969 140° Southeast 290 334 8,200 -1,742 Descending Los Angeles Center
Fri 11:21:43 PM 34.3281 -118.8267 133° Southeast 286 329 6,400 -1,548 Descending Los Angeles Center
Fri 11:22:45 PM 34.2644 -118.7475 134° Southeast 278 320 5,000 -683 Descending Los Angeles Center
Fri 11:23:46 PM 34.2142 -118.6800 132° Southeast 274 315 5,000 -683 Level Los Angeles Center
Fri 11:24:48 PM 34.1864 -118.6000 113° Southeast 265 305 3,600 -968 Descending Los Angeles Center
Fri 11:25:50 PM 34.1606 -118.5169 111° Southeast 265 305 3,000 -532 Descending Los Angeles Center
Fri 11:26:52 PM 34.1508 -118.4469 100° East 235 270 2,500 -532 Descending Los Angeles Center
Fri 11:27:54 PM 34.1403 -118.3814 101° East 212 244 1,900 -581 Descending Los Angeles Center
Fri 11:28:56 PM 34.1675 -118.3483 45° Northeast 174 200 1,300 -585 Descending Los Angeles Center
Fri 11:29:57 PM 34.2061 -118.3578 349° North 154 177 700 -590 Descending Los Angeles Center

Login

Don't have an account? Register now (free) for customized features, flight alerts, and more!